Time;durP1;ratioP1;P1;durP2;ratioP2;P2;SDS_P1;SDS_P2;PMS_P1;PMS_P2;Temp;Humidity;BMP_temperature;BMP_pressure;BME280_temperature;BME280_humidity;BME280_pressure;Samples;Min_cycle;Max_cycle;Signal;HPM_P1;HPM_P2
2022/07/28 00:02:25;;;;;;;3.03;1.87;;;14.90;99.90;;;;;;5050685;28;20460;-76
2022/07/28 00:04:52;;;;;;;5.77;2.03;;;14.90;99.90;;;;;;5050261;28;20495;-76
2022/07/28 00:07:19;;;;;;;4.40;1.97;;;14.80;99.90;;;;;;5050393;28;20468;-76
2022/07/28 00:09:45;;;;;;;3.43;2.20;;;14.80;99.90;;;;;;5049167;28;20964;-76
2022/07/28 00:12:12;;;;;;;3.33;2.10;;;14.70;99.90;;;;;;5050177;28;20460;-76
2022/07/28 00:14:39;;;;;;;6.37;2.10;;;14.70;99.90;;;;;;5050454;28;20456;-76
2022/07/28 00:17:05;;;;;;;4.30;2.40;;;14.70;99.90;;;;;;5050398;28;20502;-75
2022/07/28 00:19:33;;;;;;;6.10;2.00;;;14.60;99.90;;;;;;5046438;28;20968;-76
2022/07/28 00:22:01;;;;;;;2.53;2.33;;;14.60;99.90;;;;;;5050016;28;21067;-76
2022/07/28 00:24:28;;;;;;;2.60;1.77;;;14.50;99.90;;;;;;5049879;28;20888;-77
2022/07/28 00:26:54;;;;;;;2.90;1.90;;;14.50;99.90;;;;;;5049629;28;20499;-76
2022/07/28 00:29:21;;;;;;;4.03;2.07;;;14.50;99.90;;;;;;5048767;28;20502;-76
2022/07/28 00:31:48;;;;;;;2.90;2.30;;;14.50;99.90;;;;;;5050566;28;20445;-75
2022/07/28 00:34:14;;;;;;;6.37;2.60;;;14.40;99.90;;;;;;5050293;28;20445;-76
2022/07/28 00:36:42;;;;;;;4.57;2.10;;;14.40;99.90;;;;;;5050006;28;20480;-76
2022/07/28 00:39:09;;;;;;;6.30;2.43;;;14.40;99.90;;;;;;5049505;28;20956;-76
2022/07/28 00:41:36;;;;;;;7.60;2.00;;;14.40;99.90;;;;;;5050091;28;20970;-76
2022/07/28 00:44:05;;;;;;;5.10;1.97;;;14.40;99.90;;;;;;5049733;28;21014;-76
2022/07/28 00:46:32;;;;;;;4.03;2.10;;;14.40;99.90;;;;;;5049108;28;20475;-76
2022/07/28 00:48:58;;;;;;;3.93;2.43;;;14.30;99.90;;;;;;5049594;28;20460;-76
2022/07/28 00:51:27;;;;;;;4.50;2.07;;;14.30;99.90;;;;;;5049879;28;20519;-76
2022/07/28 00:53:56;;;;;;;3.00;2.27;;;14.20;99.90;;;;;;5049550;28;20539;-76
2022/07/28 00:56:23;;;;;;;15.17;2.20;;;14.20;99.90;;;;;;5049658;28;20471;-76
2022/07/28 00:58:50;;;;;;;2.87;2.03;;;14.20;99.90;;;;;;5050219;28;20502;-76
2022/07/28 01:01:19;;;;;;;3.97;2.70;;;14.20;99.90;;;;;;5049990;28;20472;-76
2022/07/28 01:03:50;;;;;;;7.30;3.10;;;14.20;99.90;;;;;;5049821;28;21148;-76
2022/07/28 01:06:31;;;;;;;4.30;2.30;;;14.20;99.90;;;;;;5049689;28;20510;-76
2022/07/28 01:09:06;;;;;;;11.30;2.70;;;14.10;99.90;;;;;;5050116;28;20502;-76
2022/07/28 01:11:42;;;;;;;3.20;2.40;;;14.10;99.90;;;;;;5050139;28;20535;-76
2022/07/28 01:14:16;;;;;;;4.17;2.77;;;14.10;99.90;;;;;;5050141;28;20972;-76
2022/07/28 01:16:48;;;;;;;2.67;2.10;;;14.00;99.90;;;;;;5049971;28;20486;-76
2022/07/28 01:19:29;;;;;;;5.33;2.37;;;14.00;99.90;;;;;;5050218;28;20444;-76
2022/07/28 01:21:58;;;;;;;7.07;2.47;;;14.00;99.90;;;;;;5052000;28;20484;-76
2022/07/28 01:24:29;;;;;;;2.80;2.27;;;14.00;99.90;;;;;;5053895;28;20452;-76
2022/07/28 01:26:59;;;;;;;7.43;2.57;;;13.90;99.90;;;;;;5053486;28;22364;-76
2022/07/28 01:29:50;;;;;;;4.63;2.10;;;13.90;99.90;;;;;;5053829;28;20449;-76
2022/07/28 01:32:21;;;;;;;3.27;2.50;;;13.90;99.90;;;;;;5053674;28;20460;-76
2022/07/28 01:34:53;;;;;;;2.60;2.30;;;13.90;99.90;;;;;;5051302;28;20456;-76
2022/07/28 01:37:24;;;;;;;2.90;2.10;;;13.80;99.90;;;;;;5051452;28;20472;-76
2022/07/28 01:39:55;;;;;;;3.53;2.27;;;13.80;99.90;;;;;;5051966;28;20456;-76
2022/07/28 01:42:26;;;;;;;6.60;2.03;;;13.80;99.90;;;;;;5053376;28;20895;-76
2022/07/28 01:44:57;;;;;;;4.00;2.10;;;13.80;99.90;;;;;;5053040;28;20448;-76
2022/07/28 01:47:27;;;;;;;10.80;2.33;;;13.80;99.90;;;;;;5052900;28;20831;-76
2022/07/28 01:49:56;;;;;;;3.83;2.57;;;13.80;99.90;;;;;;5051663;28;20452;-76
2022/07/28 01:52:24;;;;;;;3.80;2.50;;;13.80;99.90;;;;;;5053368;28;20475;-76
2022/07/28 01:54:53;;;;;;;5.50;2.30;;;13.70;99.90;;;;;;5052608;28;20444;-76
2022/07/28 01:57:21;;;;;;;4.83;2.37;;;13.70;99.90;;;;;;5052869;28;20499;-76
2022/07/28 01:59:49;;;;;;;8.10;2.67;;;13.70;99.90;;;;;;5052522;28;20871;-76
2022/07/28 02:02:18;;;;;;;3.07;2.10;;;13.70;99.90;;;;;;5050250;28;20767;-76
2022/07/28 02:04:48;;;;;;;6.13;2.57;;;13.60;99.90;;;;;;5052725;28;20535;-76
2022/07/28 02:07:17;;;;;;;3.40;2.10;;;13.60;99.90;;;;;;5050056;28;20472;-76
2022/07/28 02:09:45;;;;;;;4.90;2.43;;;13.60;99.90;;;;;;5052271;28;20449;-76
2022/07/28 02:12:14;;;;;;;5.03;2.20;;;13.60;99.90;;;;;;5052496;28;20862;-76
2022/07/28 02:14:42;;;;;;;5.63;2.33;;;13.50;99.90;;;;;;5052695;28;20453;-76
2022/07/28 02:17:11;;;;;;;5.50;2.20;;;13.50;99.90;;;;;;5052185;28;20472;-76
2022/07/28 02:19:39;;;;;;;4.47;2.20;;;13.40;99.90;;;;;;5052262;28;20456;-76
2022/07/28 02:22:09;;;;;;;5.23;2.10;;;13.40;99.90;;;;;;5052749;28;20484;-76
2022/07/28 02:24:37;;;;;;;4.50;2.40;;;13.40;99.90;;;;;;5049937;28;20510;-76
2022/07/28 02:27:15;;;;;;;5.90;2.20;;;13.30;99.90;;;;;;5048507;28;20482;-76
2022/07/28 02:29:47;;;;;;;4.30;2.57;;;13.30;99.90;;;;;;5050220;28;20475;-76
2022/07/28 02:32:19;;;;;;;6.60;2.63;;;13.30;99.90;;;;;;5052061;28;20941;-76
2022/07/28 02:34:47;;;;;;;5.73;2.50;;;13.30;99.90;;;;;;5052082;28;21032;-76
2022/07/28 02:37:18;;;;;;;4.90;2.37;;;13.30;99.90;;;;;;5051458;28;20464;-76
2022/07/28 02:39:49;;;;;;;6.37;2.47;;;13.30;99.90;;;;;;5052146;28;20891;-76
2022/07/28 02:42:21;;;;;;;5.50;2.60;;;13.30;99.90;;;;;;5051678;28;20898;-75
2022/07/28 02:44:56;;;;;;;5.83;2.50;;;13.30;99.90;;;;;;5051672;28;20510;-76
2022/07/28 02:47:26;;;;;;;6.90;2.73;;;13.30;99.90;;;;;;5051916;28;20995;-76
2022/07/28 02:49:55;;;;;;;3.87;2.30;;;13.30;99.90;;;;;;5051416;28;20445;-76
2022/07/28 02:52:25;;;;;;;6.57;3.20;;;13.20;99.90;;;;;;5050287;28;20456;-76
2022/07/28 02:54:52;;;;;;;4.67;2.23;;;13.20;99.90;;;;;;5051974;28;20453;-76
2022/07/28 02:57:20;;;;;;;4.70;2.57;;;13.20;99.90;;;;;;5049753;28;20468;-76
2022/07/28 02:59:49;;;;;;;2.27;2.17;;;13.20;99.90;;;;;;5051507;28;20864;-76
2022/07/28 03:02:19;;;;;;;4.03;2.03;;;13.20;99.90;;;;;;5051552;28;20919;-76
2022/07/28 03:05:00;;;;;;;2.23;2.03;;;13.20;99.90;;;;;;5051331;28;20948;-78
2022/07/28 03:07:29;;;;;;;6.63;2.50;;;13.10;99.90;;;;;;5051601;28;20858;-75
2022/07/28 03:09:56;;;;;;;4.57;2.47;;;13.10;99.90;;;;;;5051049;28;21198;-76
2022/07/28 03:12:23;;;;;;;6.00;3.03;;;13.10;99.90;;;;;;5051985;28;20886;-77
2022/07/28 03:14:50;;;;;;;3.17;2.23;;;13.00;99.90;;;;;;5051799;28;20456;-76
2022/07/28 03:17:18;;;;;;;3.73;2.53;;;13.00;99.90;;;;;;5050895;28;20469;-76
2022/07/28 03:19:45;;;;;;;3.83;2.50;;;13.00;99.90;;;;;;5051618;28;20450;-76
2022/07/28 03:22:11;;;;;;;3.87;2.33;;;12.90;99.90;;;;;;5051621;28;20480;-76
2022/07/28 03:24:42;;;;;;;3.60;2.53;;;12.90;99.90;;;;;;5051663;28;20518;-76
2022/07/28 03:27:15;;;;;;;2.37;2.27;;;12.90;99.90;;;;;;5050618;28;20534;-76
2022/07/28 03:29:43;;;;;;;5.93;2.70;;;12.90;99.90;;;;;;5049690;28;20833;-76
2022/07/28 03:32:10;;;;;;;7.70;2.80;;;12.90;99.90;;;;;;5050644;28;20544;-76
2022/07/28 03:34:37;;;;;;;6.60;2.70;;;12.80;99.90;;;;;;5050924;28;20495;-76
2022/07/28 03:37:11;;;;;;;4.23;2.43;;;12.80;99.90;;;;;;5050709;28;20480;-76
2022/07/28 03:39:45;;;;;;;6.70;2.40;;;12.80;99.90;;;;;;5050125;28;20448;-76
2022/07/28 03:42:13;;;;;;;7.90;2.70;;;12.80;99.90;;;;;;5050604;28;20489;-76
2022/07/28 03:44:41;;;;;;;3.00;2.30;;;12.80;99.90;;;;;;5050171;28;20468;-76
2022/07/28 03:47:08;;;;;;;4.60;2.43;;;12.70;99.90;;;;;;5050711;28;20477;-76
2022/07/28 03:49:35;;;;;;;8.30;2.33;;;12.70;99.90;;;;;;5050809;28;20453;-77
2022/07/28 03:52:01;;;;;;;5.97;2.13;;;12.70;99.90;;;;;;5050765;28;20449;-77
2022/07/28 03:54:28;;;;;;;4.53;2.20;;;12.70;99.90;;;;;;5050758;28;20498;-76
2022/07/28 03:56:56;;;;;;;5.80;2.80;;;12.70;99.90;;;;;;5050225;28;20530;-76
2022/07/28 03:59:23;;;;;;;3.20;2.43;;;12.70;99.90;;;;;;5050471;28;20448;-76
2022/07/28 04:01:50;;;;;;;5.37;2.93;;;12.70;99.90;;;;;;5049969;28;20877;-76
2022/07/28 04:04:17;;;;;;;3.60;3.10;;;12.70;99.90;;;;;;5050727;28;20460;-78
2022/07/28 04:06:43;;;;;;;7.23;2.73;;;12.70;99.90;;;;;;5050081;28;20905;-76
2022/07/28 04:09:10;;;;;;;6.30;2.67;;;12.70;99.90;;;;;;5050438;28;20460;-77
2022/07/28 04:11:36;;;;;;;4.73;2.30;;;12.70;99.90;;;;;;5049919;28;20499;-76
2022/07/28 04:14:04;;;;;;;10.67;2.63;;;12.70;99.90;;;;;;5049245;28;20448;-76
2022/07/28 04:16:31;;;;;;;8.40;2.50;;;12.70;99.90;;;;;;5049718;28;20475;-76
2022/07/28 04:18:58;;;;;;;6.70;2.67;;;12.70;99.90;;;;;;5050072;28;20875;-75
2022/07/28 04:21:24;;;;;;;5.43;2.70;;;12.70;99.90;;;;;;5050299;28;20959;-76
2022/07/28 04:23:51;;;;;;;13.33;2.87;;;12.70;99.90;;;;;;5048055;28;21131;-77
2022/07/28 04:26:18;;;;;;;4.33;2.50;;;12.70;99.90;;;;;;5046885;28;20510;-77
2022/07/28 04:28:46;;;;;;;3.60;2.50;;;12.80;99.90;;;;;;5049862;28;20535;-77
2022/07/28 04:31:14;;;;;;;5.13;2.77;;;12.80;99.90;;;;;;5050153;28;20503;-77
2022/07/28 04:33:41;;;;;;;2.70;2.50;;;12.80;99.90;;;;;;5049729;28;20460;-77
2022/07/28 04:36:08;;;;;;;7.23;2.80;;;12.90;99.90;;;;;;5049533;28;20465;-77
2022/07/28 04:38:35;;;;;;;4.20;2.50;;;12.90;99.90;;;;;;5046224;28;20523;-77
2022/07/28 04:41:01;;;;;;;7.87;2.70;;;12.90;99.90;;;;;;5048627;28;20452;-77
2022/07/28 04:43:28;;;;;;;5.63;3.17;;;13.00;99.90;;;;;;5049851;28;20480;-77
2022/07/28 04:45:55;;;;;;;7.00;3.20;;;13.00;99.90;;;;;;5049737;28;20448;-78
2022/07/28 04:48:23;;;;;;;5.27;2.80;;;13.00;99.90;;;;;;5049772;28;20499;-78
2022/07/28 04:50:51;;;;;;;6.63;3.10;;;13.10;99.90;;;;;;5050017;28;20451;-77
2022/07/28 04:53:18;;;;;;;8.50;3.00;;;13.10;99.90;;;;;;5047760;28;20457;-77
2022/07/28 04:55:45;;;;;;;11.27;3.30;;;13.10;99.90;;;;;;5049991;28;20472;-77
2022/07/28 04:58:12;;;;;;;7.43;2.80;;;13.20;99.90;;;;;;5053431;28;20475;-77
2022/07/28 05:00:38;;;;;;;10.80;3.70;;;13.20;99.90;;;;;;5053581;28;20543;-72
2022/07/28 05:03:05;;;;;;;8.30;2.93;;;13.20;99.90;;;;;;5053760;28;20484;-72
2022/07/28 05:05:33;;;;;;;3.73;2.43;;;13.30;99.90;;;;;;5053606;28;20452;-73
2022/07/28 05:08:00;;;;;;;12.07;2.70;;;13.50;99.90;;;;;;5053870;28;20999;-72
2022/07/28 05:10:26;;;;;;;6.57;2.83;;;13.80;99.90;;;;;;5053925;28;20452;-73
2022/07/28 05:12:53;;;;;;;8.47;2.70;;;13.90;99.90;;;;;;5054299;28;20448;-73
2022/07/28 05:15:20;;;;;;;8.43;2.80;;;14.00;99.90;;;;;;5053549;28;20502;-73
2022/07/28 05:17:46;;;;;;;5.50;2.80;;;14.00;99.90;;;;;;5053587;28;20987;-74
2022/07/28 05:20:13;;;;;;;4.20;2.20;;;14.10;99.90;;;;;;5053459;28;20460;-73
2022/07/28 05:22:46;;;;;;;4.90;2.80;;;14.10;99.90;;;;;;5053329;28;20488;-73
2022/07/28 05:25:15;;;;;;;4.23;2.57;;;14.10;99.90;;;;;;5053099;28;21005;-73
2022/07/28 05:27:41;;;;;;;7.57;3.00;;;14.10;99.90;;;;;;5052948;28;20468;-73
2022/07/28 05:30:09;;;;;;;5.47;2.63;;;14.30;99.90;;;;;;5053362;28;20494;-73
2022/07/28 05:32:36;;;;;;;5.90;2.90;;;14.40;99.90;;;;;;5053122;28;20563;-73
2022/07/28 05:35:03;;;;;;;5.57;2.50;;;14.60;99.90;;;;;;5053131;28;20955;-74
2022/07/28 05:37:32;;;;;;;7.07;2.67;;;14.70;99.90;;;;;;5051865;28;20471;-73
2022/07/28 05:40:00;;;;;;;2.60;2.37;;;14.60;99.90;;;;;;5051956;28;20464;-76
2022/07/28 05:42:28;;;;;;;7.60;2.80;;;14.60;99.90;;;;;;5050487;28;21058;-74
2022/07/28 05:44:55;;;;;;;5.60;3.13;;;14.70;99.90;;;;;;5052213;28;20480;-75
2022/07/28 05:47:21;;;;;;;5.03;2.90;;;14.70;99.90;;;;;;5049797;28;20498;-75
2022/07/28 05:49:48;;;;;;;7.00;2.33;;;14.80;99.90;;;;;;5050252;28;20514;-75
2022/07/28 05:52:14;;;;;;;5.60;2.83;;;14.90;99.90;;;;;;5049049;28;20967;-75
2022/07/28 05:54:41;;;;;;;4.57;2.83;;;15.00;99.90;;;;;;5051416;28;20502;-72
2022/07/28 05:57:11;;;;;;;5.83;2.90;;;15.20;99.90;;;;;;5051168;28;20480;-72
2022/07/28 05:59:37;;;;;;;9.33;3.73;;;15.40;99.90;;;;;;5050659;28;20495;-72
2022/07/28 06:02:04;;;;;;;6.77;3.80;;;15.40;99.90;;;;;;5052001;28;20510;-72
2022/07/28 06:04:31;;;;;;;10.13;4.03;;;15.40;99.90;;;;;;5051140;28;20452;-72
2022/07/28 06:06:57;;;;;;;9.53;3.60;;;15.40;99.90;;;;;;5051341;28;20538;-72
2022/07/28 06:09:24;;;;;;;8.63;3.30;;;15.40;99.90;;;;;;5051994;28;20424;-72
2022/07/28 06:11:51;;;;;;;5.20;2.87;;;15.50;99.90;;;;;;5052778;28;20818;-71
2022/07/28 06:14:19;;;;;;;8.37;3.33;;;15.50;99.90;;;;;;5052356;28;20525;-72
2022/07/28 06:16:49;;;;;;;4.50;3.37;;;15.50;99.90;;;;;;5052214;28;20908;-72
2022/07/28 06:19:16;;;;;;;7.73;3.30;;;15.60;99.90;;;;;;5052582;28;20448;-73
2022/07/28 06:21:43;;;;;;;7.13;3.20;;;15.70;99.90;;;;;;5052686;28;20859;-72
2022/07/28 06:24:10;;;;;;;4.63;2.60;;;15.80;99.90;;;;;;5051122;28;20827;-72
2022/07/28 06:26:38;;;;;;;3.10;2.27;;;16.10;99.90;;;;;;5052164;28;20489;-72
2022/07/28 06:29:05;;;;;;;7.70;3.10;;;16.40;99.90;;;;;;5051379;28;20449;-73
2022/07/28 06:31:33;;;;;;;10.20;2.80;;;16.80;99.90;;;;;;5051334;28;20456;-72
2022/07/28 06:34:00;;;;;;;4.70;2.50;;;17.20;99.90;;;;;;5052129;28;20427;-72
2022/07/28 06:36:27;;;;;;;3.00;2.60;;;17.60;99.90;;;;;;5051772;28;20431;-72
2022/07/28 06:38:54;;;;;;;6.33;2.30;;;18.00;99.90;;;;;;5051921;28;20419;-72
2022/07/28 06:41:20;;;;;;;6.33;2.60;;;18.20;99.90;;;;;;5051882;28;20427;-73
2022/07/28 06:43:47;;;;;;;8.03;2.90;;;18.30;99.90;;;;;;5051545;28;20472;-72
2022/07/28 06:46:17;;;;;;;7.70;2.47;;;18.60;99.90;;;;;;5051103;28;20476;-73
2022/07/28 06:48:45;;;;;;;3.93;1.93;;;18.70;99.90;;;;;;5051536;28;20423;-72
2022/07/28 06:51:13;;;;;;;4.23;2.10;;;19.00;99.90;;;;;;5051533;28;21017;-73
2022/07/28 06:53:40;;;;;;;10.40;2.47;;;19.10;99.90;;;;;;5051351;28;21009;-72
2022/07/28 06:56:07;;;;;;;6.97;2.93;;;19.30;99.90;;;;;;5051391;28;20481;-72
2022/07/28 06:58:33;;;;;;;7.17;2.30;;;19.50;99.90;;;;;;5046603;28;20530;-72
2022/07/28 07:01:01;;;;;;;3.90;2.50;;;19.70;99.90;;;;;;5047465;28;20491;-73
2022/07/28 07:03:27;;;;;;;3.10;1.97;;;19.80;99.90;;;;;;5050032;28;20484;-76
2022/07/28 07:05:56;;;;;;;5.93;2.17;;;19.90;99.90;;;;;;5050296;28;20448;-75
2022/07/28 07:08:23;;;;;;;5.83;2.80;;;20.00;99.90;;;;;;5050694;28;20458;-75
2022/07/28 07:10:49;;;;;;;7.07;2.13;;;20.00;99.90;;;;;;5051692;28;20452;-75
2022/07/28 07:13:16;;;;;;;14.70;2.37;;;20.10;99.90;;;;;;5050693;28;20452;-75
2022/07/28 07:15:43;;;;;;;13.07;2.80;;;20.10;99.90;;;;;;5051339;28;20487;-75
2022/07/28 07:18:09;;;;;;;5.57;2.40;;;20.00;99.90;;;;;;5051932;28;20454;-75
2022/07/28 07:20:36;;;;;;;7.50;2.03;;;20.00;99.90;;;;;;5051851;28;20452;-75
2022/07/28 07:23:04;;;;;;;9.80;2.30;;;20.10;99.90;;;;;;5051828;28;20516;-75
2022/07/28 07:25:31;;;;;;;7.70;2.60;;;20.40;99.90;;;;;;5052201;28;20452;-76
2022/07/28 07:27:58;;;;;;;5.77;2.33;;;20.70;99.90;;;;;;5052442;28;20528;-75
2022/07/28 07:30:24;;;;;;;3.87;2.37;;;20.70;99.90;;;;;;5052591;28;20456;-75
2022/07/28 07:32:51;;;;;;;6.67;2.40;;;20.60;99.90;;;;;;5052554;28;20448;-75
2022/07/28 07:35:18;;;;;;;5.03;2.27;;;20.50;99.90;;;;;;5052436;28;20522;-75
2022/07/28 07:37:44;;;;;;;6.37;2.30;;;20.60;99.90;;;;;;5052335;28;20551;-75
2022/07/28 07:40:12;;;;;;;7.20;1.97;;;20.70;99.90;;;;;;5052152;28;20452;-76
2022/07/28 07:42:39;;;;;;;7.07;2.20;;;20.80;99.90;;;;;;5051953;28;21120;-75
2022/07/28 07:45:06;;;;;;;10.83;2.20;;;21.00;99.90;;;;;;5052375;28;20459;-75
2022/07/28 07:47:33;;;;;;;5.33;2.10;;;21.20;99.90;;;;;;5052243;28;20480;-75
2022/07/28 07:50:00;;;;;;;9.40;2.67;;;21.40;99.90;;;;;;5051997;28;20972;-76
2022/07/28 07:52:27;;;;;;;3.07;1.60;;;21.60;99.90;;;;;;5051963;28;20505;-75
2022/07/28 07:54:53;;;;;;;6.63;2.70;;;21.60;99.90;;;;;;5052040;28;20448;-75
2022/07/28 07:57:21;;;;;;;11.53;1.97;;;21.90;99.90;;;;;;5051646;28;20817;-75
2022/07/28 07:59:49;;;;;;;7.60;2.30;;;22.30;99.90;;;;;;5051912;28;20444;-75
2022/07/28 08:02:15;;;;;;;4.43;1.70;;;22.50;99.90;;;;;;5052018;28;20859;-75
2022/07/28 08:04:42;;;;;;;6.63;1.90;;;22.70;99.90;;;;;;5051802;28;20543;-75
2022/07/28 08:07:09;;;;;;;8.50;2.10;;;22.90;99.90;;;;;;5051563;28;21007;-75
2022/07/28 08:09:35;;;;;;;7.83;1.90;;;23.10;99.90;;;;;;5051759;28;20452;-75
2022/07/28 08:12:02;;;;;;;4.73;2.30;;;23.20;99.90;;;;;;5044665;28;20483;-74
2022/07/28 08:14:30;;;;;;;3.60;1.60;;;23.30;99.90;;;;;;5031593;28;20457;-75
2022/07/28 08:16:58;;;;;;;6.07;2.13;;;23.50;99.90;;;;;;5031506;28;20477;-74
2022/07/28 08:19:25;;;;;;;4.33;2.13;;;23.80;99.90;;;;;;5031607;28;20453;-73
2022/07/28 08:21:51;;;;;;;3.27;1.77;;;23.80;99.90;;;;;;5032136;28;20453;-73
2022/07/28 08:24:18;;;;;;;4.60;1.80;;;24.10;99.90;;;;;;5031694;28;20493;-73
2022/07/28 08:26:45;;;;;;;7.83;1.70;;;24.10;99.90;;;;;;5031513;28;20522;-75
2022/07/28 08:29:12;;;;;;;8.37;1.60;;;24.30;99.90;;;;;;5031571;28;20469;-73
2022/07/28 08:31:40;;;;;;;4.47;1.93;;;24.30;99.90;;;;;;5030893;28;20457;-72
2022/07/28 08:34:06;;;;;;;5.57;1.60;;;24.30;99.90;;;;;;5031387;28;20790;-73
2022/07/28 08:36:33;;;;;;;5.37;1.50;;;24.50;99.90;;;;;;5048490;28;20472;-74
2022/07/28 08:39:00;;;;;;;4.40;1.50;;;24.50;99.90;;;;;;5051906;28;20457;-74
2022/07/28 08:41:36;;;;;;;2.67;1.80;;;24.60;99.90;;;;;;5051599;28;20518;-74
2022/07/28 08:44:03;;;;;;;4.13;2.00;;;24.90;99.40;;;;;;5051195;28;21081;-74
2022/07/28 08:46:35;;;;;;;4.60;1.83;;;25.00;99.80;;;;;;5051082;28;20455;-74
2022/07/28 08:49:07;;;;;;;3.43;1.60;;;25.20;99.30;;;;;;5051511;28;20440;-74
2022/07/28 08:51:34;;;;;;;4.90;2.00;;;25.30;99.00;;;;;;5051573;28;20448;-75
2022/07/28 08:54:02;;;;;;;3.80;1.60;;;25.30;98.40;;;;;;5051349;28;20590;-74
2022/07/28 08:56:29;;;;;;;4.13;1.80;;;25.50;99.30;;;;;;5051056;28;20448;-74
2022/07/28 08:58:57;;;;;;;11.43;2.10;;;25.70;97.90;;;;;;5051214;28;20459;-74
2022/07/28 09:01:24;;;;;;;9.80;1.63;;;25.50;97.70;;;;;;5051202;28;20452;-74
2022/07/28 09:03:52;;;;;;;2.03;1.67;;;25.30;98.40;;;;;;5051382;28;20488;-74
2022/07/28 09:06:21;;;;;;;8.13;1.77;;;25.50;97.80;;;;;;5051237;28;20458;-74
2022/07/28 09:08:48;;;;;;;3.40;1.67;;;25.40;97.90;;;;;;5051493;28;20452;-74
2022/07/28 09:11:15;;;;;;;2.70;1.60;;;25.60;97.20;;;;;;5050675;28;20448;-74
2022/07/28 09:13:41;;;;;;;6.37;1.70;;;25.50;97.80;;;;;;5030995;28;20515;-75
2022/07/28 09:16:08;;;;;;;4.83;1.80;;;25.70;98.10;;;;;;5030941;28;20844;-74
2022/07/28 09:18:35;;;;;;;5.53;2.13;;;26.00;97.90;;;;;;5031324;28;20891;-74
2022/07/28 09:21:01;;;;;;;7.03;2.20;;;26.20;97.00;;;;;;5031372;28;20875;-75
2022/07/28 09:23:42;;;;;;;3.63;1.80;;;26.20;97.30;;;;;;5031105;28;20538;-75
2022/07/28 09:26:09;;;;;;;5.70;1.60;;;26.40;96.00;;;;;;5031107;28;20510;-74
2022/07/28 09:28:47;;;;;;;5.57;2.53;;;26.40;96.30;;;;;;5031081;28;20796;-74
2022/07/28 09:31:13;;;;;;;5.43;2.80;;;26.60;96.60;;;;;;5031185;28;20444;-74
2022/07/28 09:33:52;;;;;;;4.70;1.87;;;26.70;96.40;;;;;;5031154;28;20453;-74
2022/07/28 09:36:18;;;;;;;4.47;2.00;;;26.50;95.80;;;;;;5045728;28;20502;-74
2022/07/28 09:38:47;;;;;;;13.53;2.07;;;26.60;96.40;;;;;;5051167;28;20456;-74
2022/07/28 09:41:17;;;;;;;9.13;1.80;;;26.40;95.50;;;;;;5050977;28;20506;-74
2022/07/28 09:43:45;;;;;;;3.67;1.90;;;26.20;96.10;;;;;;5053920;28;20974;-74
2022/07/28 09:46:14;;;;;;;2.60;1.87;;;26.20;97.20;;;;;;5054178;28;20441;-74
2022/07/28 09:48:52;;;;;;;5.03;2.00;;;26.40;96.50;;;;;;5054263;28;20456;-74
2022/07/28 09:51:21;;;;;;;3.10;1.80;;;26.80;96.40;;;;;;5054852;28;20848;-74
2022/07/28 09:53:49;;;;;;;2.40;2.00;;;27.00;96.30;;;;;;5054355;28;20826;-74
2022/07/28 09:56:16;;;;;;;7.60;1.90;;;27.10;95.90;;;;;;5053989;28;20499;-74
2022/07/28 09:58:53;;;;;;;6.63;1.80;;;27.40;95.80;;;;;;5054632;28;20433;-74
2022/07/28 10:01:21;;;;;;;4.40;1.83;;;27.60;95.40;;;;;;5053927;28;20452;-74
2022/07/28 10:03:50;;;;;;;9.33;1.93;;;27.70;95.40;;;;;;5054255;28;20526;-75
2022/07/28 10:06:25;;;;;;;4.77;2.33;;;27.60;94.70;;;;;;5053843;28;20543;-74
2022/07/28 10:08:53;;;;;;;5.30;1.90;;;27.60;94.40;;;;;;5054163;28;20448;-75
2022/07/28 10:11:23;;;;;;;7.30;1.70;;;27.70;94.70;;;;;;5052561;28;20539;-74
2022/07/28 10:13:58;;;;;;;3.40;2.13;;;27.90;94.40;;;;;;5033672;28;20444;-74
2022/07/28 10:16:26;;;;;;;3.43;2.27;;;27.60;94.50;;;;;;5033600;28;20941;-75
2022/07/28 10:18:54;;;;;;;3.30;1.90;;;27.60;94.90;;;;;;5034128;28;20499;-74
2022/07/28 10:21:24;;;;;;;3.67;2.20;;;27.70;94.60;;;;;;5033793;28;20445;-74
2022/07/28 10:23:54;;;;;;;3.73;1.40;;;27.70;94.10;;;;;;5033514;28;21016;-75
2022/07/28 10:26:24;;;;;;;3.90;1.80;;;27.40;94.40;;;;;;5033561;28;20503;-74
2022/07/28 10:28:53;;;;;;;6.30;2.07;;;27.60;94.20;;;;;;5033934;28;20426;-74
2022/07/28 10:31:32;;;;;;;8.77;3.50;;;27.90;94.50;;;;;;5033656;28;20468;-74
2022/07/28 10:34:00;;;;;;;4.50;1.60;;;28.00;94.10;;;;;;5033573;28;20484;-74
2022/07/28 10:36:27;;;;;;;2.53;1.63;;;28.30;93.80;;;;;;5049316;28;20578;-74
2022/07/28 10:39:02;;;;;;;6.73;2.20;;;28.30;93.20;;;;;;5053979;28;20466;-74
2022/07/28 10:41:38;;;;;;;5.80;2.27;;;28.30;93.10;;;;;;5053426;28;20482;-73
2022/07/28 10:44:05;;;;;;;4.13;1.60;;;28.50;93.80;;;;;;5053314;28;20475;-74
2022/07/28 10:46:32;;;;;;;6.53;1.80;;;28.60;92.70;;;;;;5052811;28;20534;-74
2022/07/28 10:49:00;;;;;;;8.33;1.77;;;28.50;92.60;;;;;;5053370;28;20510;-74
2022/07/28 10:51:28;;;;;;;4.70;1.70;;;28.20;92.60;;;;;;5053266;28;20444;-74
2022/07/28 10:54:04;;;;;;;4.07;1.90;;;28.10;92.70;;;;;;5052441;28;20506;-74
2022/07/28 10:56:46;;;;;;;5.87;2.23;;;28.20;93.70;;;;;;5052879;28;20444;-74
2022/07/28 10:59:37;;;;;;;2.30;1.73;;;28.50;93.00;;;;;;5053170;28;20459;-74
2022/07/28 11:02:03;;;;;;;2.30;1.70;;;28.60;91.40;;;;;;5053442;28;20460;-74
2022/07/28 11:04:54;;;;;;;5.50;1.83;;;28.50;91.20;;;;;;5053171;28;20488;-73
2022/07/28 11:07:21;;;;;;;4.73;1.63;;;28.70;91.70;;;;;;5052495;28;20538;-74
2022/07/28 11:09:49;;;;;;;9.10;2.23;;;28.80;91.30;;;;;;5053058;28;20898;-74
2022/07/28 11:12:36;;;;;;;2.90;1.60;;;29.00;89.10;;;;;;5044146;28;20452;-74
2022/07/28 11:15:28;;;;;;;3.37;2.00;;;29.00;90.10;;;;;;5032286;28;20441;-73
2022/07/28 11:17:59;;;;;;;4.17;1.90;;;29.50;90.20;;;;;;5032956;28;20473;-73
2022/07/28 11:20:59;;;;;;;5.90;2.03;;;29.80;89.70;;;;;;5032973;28;20866;-74
2022/07/28 11:23:40;;;;;;;4.77;2.00;;;29.70;89.30;;;;;;5032558;28;20457;-74
2022/07/28 11:26:37;;;;;;;7.93;2.03;;;29.20;90.50;;;;;;5032640;28;20537;-73
2022/07/28 11:29:14;;;;;;;5.53;1.80;;;29.10;90.20;;;;;;5032938;28;20461;-73
2022/07/28 11:31:56;;;;;;;3.90;1.83;;;29.00;90.00;;;;;;5032399;28;20815;-74
2022/07/28 11:34:25;;;;;;;3.00;1.70;;;29.00;89.80;;;;;;5030600;28;20904;-74
2022/07/28 11:37:03;;;;;;;4.27;1.70;;;29.00;90.20;;;;;;5051814;28;20468;-73
2022/07/28 11:39:31;;;;;;;5.20;1.73;;;29.30;89.30;;;;;;5052493;28;20547;-74
2022/07/28 11:41:59;;;;;;;3.93;1.70;;;29.30;89.80;;;;;;5052141;28;20830;-74
2022/07/28 11:44:27;;;;;;;5.50;1.57;;;29.40;88.10;;;;;;5052160;28;20487;-75
2022/07/28 11:46:54;;;;;;;7.77;2.13;;;29.30;89.80;;;;;;5051996;28;20893;-75
2022/07/28 11:49:26;;;;;;;3.47;1.87;;;29.60;88.80;;;;;;5052354;28;20453;-75
2022/07/28 11:52:19;;;;;;;4.27;1.90;;;30.00;86.80;;;;;;5052068;28;20460;-75
2022/07/28 11:54:51;;;;;;;3.93;1.93;;;30.00;86.20;;;;;;5042433;28;20465;-75
2022/07/28 11:57:22;;;;;;;4.90;2.00;;;30.10;86.70;;;;;;5052023;28;20523;-75
2022/07/28 11:59:52;;;;;;;4.07;1.67;;;30.00;85.30;;;;;;5052165;28;20453;-75
2022/07/28 12:02:21;;;;;;;4.07;1.70;;;29.60;86.30;;;;;;5052004;28;20444;-74
2022/07/28 12:04:56;;;;;;;7.63;1.90;;;29.60;86.40;;;;;;5052017;28;20476;-75
2022/07/28 12:07:28;;;;;;;3.57;1.97;;;29.80;87.70;;;;;;5051549;28;20482;-76
2022/07/28 12:09:55;;;;;;;4.80;1.80;;;30.10;88.00;;;;;;5051792;28;20520;-75
2022/07/28 12:12:26;;;;;;;3.57;1.70;;;30.50;86.90;;;;;;5041950;28;20461;-75
2022/07/28 12:14:54;;;;;;;8.33;2.20;;;30.30;86.40;;;;;;5031782;28;20511;-74
2022/07/28 12:17:21;;;;;;;4.80;1.80;;;30.50;85.80;;;;;;5031911;28;20481;-74
2022/07/28 12:19:48;;;;;;;2.80;1.60;;;31.00;85.70;;;;;;5031701;28;20448;-76
2022/07/28 12:22:14;;;;;;;10.00;2.10;;;31.10;85.40;;;;;;5031941;28;20674;-75
2022/07/28 12:24:41;;;;;;;7.93;2.30;;;31.00;85.90;;;;;;5031705;28;20640;-75
2022/07/28 12:27:09;;;;;;;3.90;2.13;;;31.10;84.00;;;;;;5031542;28;20468;-75
2022/07/28 12:29:37;;;;;;;4.20;2.03;;;30.90;83.00;;;;;;5031651;28;20867;-75
2022/07/28 12:32:08;;;;;;;2.97;1.90;;;30.30;83.60;;;;;;5031340;28;20503;-75
2022/07/28 12:34:36;;;;;;;7.87;2.10;;;29.90;85.00;;;;;;5032626;28;20814;-75
2022/07/28 12:37:05;;;;;;;4.30;1.63;;;30.00;84.00;;;;;;5051272;28;20480;-75
2022/07/28 12:39:35;;;;;;;3.13;1.77;;;30.30;84.20;;;;;;5051602;28;20444;-75
2022/07/28 12:42:03;;;;;;;3.50;1.57;;;30.60;84.80;;;;;;5051444;28;20455;-73
2022/07/28 12:44:34;;;;;;;2.90;1.70;;;30.80;82.70;;;;;;5051336;28;21118;-75
2022/07/28 12:47:02;;;;;;;3.80;1.63;;;30.80;82.80;;;;;;5050987;28;21011;-74
2022/07/28 12:49:29;;;;;;;4.17;1.60;;;30.70;82.60;;;;;;5051541;28;20448;-74
2022/07/28 12:51:57;;;;;;;2.77;1.87;;;30.70;82.90;;;;;;5051248;28;20506;-74
2022/07/28 12:54:35;;;;;;;4.67;1.70;;;30.70;81.50;;;;;;5051497;28;20916;-74
2022/07/28 12:57:02;;;;;;;4.10;1.70;;;30.80;82.50;;;;;;5051117;28;20534;-75